sensor_id;sensor_type;location;lat;lon;timestamp;temperature;humidity
25352;DHT22;13304;48.464;8.712;2023-08-21T00:02:01;26.10;77.50
25352;DHT22;13304;48.464;8.712;2023-08-21T00:04:27;26.10;77.60
25352;DHT22;13304;48.464;8.712;2023-08-21T00:06:53;26.10;77.60
25352;DHT22;13304;48.464;8.712;2023-08-21T00:09:19;26.10;77.70
25352;DHT22;13304;48.464;8.712;2023-08-21T00:11:45;26.00;77.70
25352;DHT22;13304;48.464;8.712;2023-08-21T00:14:10;26.00;77.80
25352;DHT22;13304;48.464;8.712;2023-08-21T00:16:36;26.00;77.90
25352;DHT22;13304;48.464;8.712;2023-08-21T00:19:02;25.90;77.80
25352;DHT22;13304;48.464;8.712;2023-08-21T00:21:27;25.90;77.90
25352;DHT22;13304;48.464;8.712;2023-08-21T00:23:53;25.90;78.00
25352;DHT22;13304;48.464;8.712;2023-08-21T00:26:19;25.90;78.10
25352;DHT22;13304;48.464;8.712;2023-08-21T00:28:44;25.90;78.20
25352;DHT22;13304;48.464;8.712;2023-08-21T00:31:10;25.80;78.10
25352;DHT22;13304;48.464;8.712;2023-08-21T00:33:36;25.80;78.20
25352;DHT22;13304;48.464;8.712;2023-08-21T00:36:03;25.80;78.20
25352;DHT22;13304;48.464;8.712;2023-08-21T00:38:28;25.80;78.30
25352;DHT22;13304;48.464;8.712;2023-08-21T00:40:55;25.80;78.30
25352;DHT22;13304;48.464;8.712;2023-08-21T00:43:22;25.80;78.30
25352;DHT22;13304;48.464;8.712;2023-08-21T00:45:49;25.80;78.30
25352;DHT22;13304;48.464;8.712;2023-08-21T00:48:15;25.80;78.30
25352;DHT22;13304;48.464;8.712;2023-08-21T00:50:42;25.80;78.30
25352;DHT22;13304;48.464;8.712;2023-08-21T00:53:08;25.70;78.30
25352;DHT22;13304;48.464;8.712;2023-08-21T00:55:34;25.70;78.20
25352;DHT22;13304;48.464;8.712;2023-08-21T00:58:02;25.70;78.20
25352;DHT22;13304;48.464;8.712;2023-08-21T01:00:29;25.70;78.30
25352;DHT22;13304;48.464;8.712;2023-08-21T01:02:56;25.70;78.40
25352;DHT22;13304;48.464;8.712;2023-08-21T01:05:23;25.60;78.30
25352;DHT22;13304;48.464;8.712;2023-08-21T01:07:56;25.60;78.30
25352;DHT22;13304;48.464;8.712;2023-08-21T01:16:09;25.50;78.70
25352;DHT22;13304;48.464;8.712;2023-08-21T01:18:35;25.50;78.50
25352;DHT22;13304;48.464;8.712;2023-08-21T01:21:03;25.50;78.70
25352;DHT22;13304;48.464;8.712;2023-08-21T01:23:34;25.50;78.70
25352;DHT22;13304;48.464;8.712;2023-08-21T01:26:00;25.50;78.80
25352;DHT22;13304;48.464;8.712;2023-08-21T01:28:25;25.50;78.70
25352;DHT22;13304;48.464;8.712;2023-08-21T01:33:37;25.50;78.90
25352;DHT22;13304;48.464;8.712;2023-08-21T01:36:06;25.40;78.70
25352;DHT22;13304;48.464;8.712;2023-08-21T01:38:34;25.40;78.70
25352;DHT22;13304;48.464;8.712;2023-08-21T01:41:01;25.40;78.90
25352;DHT22;13304;48.464;8.712;2023-08-21T01:43:27;25.40;79.70
25352;DHT22;13304;48.464;8.712;2023-08-21T01:45:53;25.30;78.80
25352;DHT22;13304;48.464;8.712;2023-08-21T01:48:19;25.30;79.10
25352;DHT22;13304;48.464;8.712;2023-08-21T01:50:45;25.30;79.20
25352;DHT22;13304;48.464;8.712;2023-08-21T01:53:11;25.30;79.20
25352;DHT22;13304;48.464;8.712;2023-08-21T01:55:36;25.20;79.20
25352;DHT22;13304;48.464;8.712;2023-08-21T01:58:02;25.20;79.30
25352;DHT22;13304;48.464;8.712;2023-08-21T02:00:28;25.20;79.40
25352;DHT22;13304;48.464;8.712;2023-08-21T02:02:54;25.20;79.50
25352;DHT22;13304;48.464;8.712;2023-08-21T02:05:19;25.10;79.50
25352;DHT22;13304;48.464;8.712;2023-08-21T02:07:45;25.10;79.50
25352;DHT22;13304;48.464;8.712;2023-08-21T02:10:11;25.10;79.80
25352;DHT22;13304;48.464;8.712;2023-08-21T02:12:37;25.10;79.70
25352;DHT22;13304;48.464;8.712;2023-08-21T02:15:03;25.10;79.60
25352;DHT22;13304;48.464;8.712;2023-08-21T02:17:30;25.00;79.70
25352;DHT22;13304;48.464;8.712;2023-08-21T02:19:55;25.00;79.80
25352;DHT22;13304;48.464;8.712;2023-08-21T02:22:21;25.00;80.00
25352;DHT22;13304;48.464;8.712;2023-08-21T02:24:47;25.00;80.00
25352;DHT22;13304;48.464;8.712;2023-08-21T02:27:12;25.00;80.00
25352;DHT22;13304;48.464;8.712;2023-08-21T02:29:38;25.00;80.10
25352;DHT22;13304;48.464;8.712;2023-08-21T02:32:04;24.90;80.20
25352;DHT22;13304;48.464;8.712;2023-08-21T02:34:30;24.90;80.30
25352;DHT22;13304;48.464;8.712;2023-08-21T02:36:55;24.90;80.40
25352;DHT22;13304;48.464;8.712;2023-08-21T02:39:21;24.90;80.40
25352;DHT22;13304;48.464;8.712;2023-08-21T02:41:47;24.80;80.40
25352;DHT22;13304;48.464;8.712;2023-08-21T02:44:13;24.80;80.50
25352;DHT22;13304;48.464;8.712;2023-08-21T02:46:38;24.80;80.70
25352;DHT22;13304;48.464;8.712;2023-08-21T02:49:04;24.80;80.90
25352;DHT22;13304;48.464;8.712;2023-08-21T02:51:30;24.80;80.90
25352;DHT22;13304;48.464;8.712;2023-08-21T02:53:56;24.70;81.00
25352;DHT22;13304;48.464;8.712;2023-08-21T02:56:21;24.70;81.00
25352;DHT22;13304;48.464;8.712;2023-08-21T02:58:47;24.70;81.90
25352;DHT22;13304;48.464;8.712;2023-08-21T03:01:13;24.60;80.90
25352;DHT22;13304;48.464;8.712;2023-08-21T03:03:39;24.60;80.90
25352;DHT22;13304;48.464;8.712;2023-08-21T03:06:05;24.60;81.00
25352;DHT22;13304;48.464;8.712;2023-08-21T03:08:31;24.60;81.00
25352;DHT22;13304;48.464;8.712;2023-08-21T03:10:56;24.60;81.20
25352;DHT22;13304;48.464;8.712;2023-08-21T03:13:22;24.50;81.30
25352;DHT22;13304;48.464;8.712;2023-08-21T03:15:48;24.50;81.20
25352;DHT22;13304;48.464;8.712;2023-08-21T03:18:13;24.50;81.50
25352;DHT22;13304;48.464;8.712;2023-08-21T03:20:44;24.50;81.50
25352;DHT22;13304;48.464;8.712;2023-08-21T03:23:11;24.40;81.60
25352;DHT22;13304;48.464;8.712;2023-08-21T03:25:36;24.50;81.50
25352;DHT22;13304;48.464;8.712;2023-08-21T03:28:02;24.40;81.50
25352;DHT22;13304;48.464;8.712;2023-08-21T03:30:28;24.50;81.60
25352;DHT22;13304;48.464;8.712;2023-08-21T03:32:54;24.50;81.60
25352;DHT22;13304;48.464;8.712;2023-08-21T03:35:20;24.40;81.60
25352;DHT22;13304;48.464;8.712;2023-08-21T03:37:45;24.40;81.60
25352;DHT22;13304;48.464;8.712;2023-08-21T03:40:11;24.40;81.70
25352;DHT22;13304;48.464;8.712;2023-08-21T03:42:37;24.40;81.70
25352;DHT22;13304;48.464;8.712;2023-08-21T03:45:03;24.40;81.60
25352;DHT22;13304;48.464;8.712;2023-08-21T03:47:30;24.40;81.60
25352;DHT22;13304;48.464;8.712;2023-08-21T03:49:56;24.40;81.70
25352;DHT22;13304;48.464;8.712;2023-08-21T03:52:22;24.30;81.60
25352;DHT22;13304;48.464;8.712;2023-08-21T03:54:48;24.30;81.70
25352;DHT22;13304;48.464;8.712;2023-08-21T03:57:13;24.30;81.70
25352;DHT22;13304;48.464;8.712;2023-08-21T03:59:39;24.30;81.90
25352;DHT22;13304;48.464;8.712;2023-08-21T04:02:05;24.30;81.90
25352;DHT22;13304;48.464;8.712;2023-08-21T04:04:30;24.30;81.90
25352;DHT22;13304;48.464;8.712;2023-08-21T04:06:56;24.30;82.00
25352;DHT22;13304;48.464;8.712;2023-08-21T04:09:22;24.20;81.90
25352;DHT22;13304;48.464;8.712;2023-08-21T04:11:47;24.20;82.10
25352;DHT22;13304;48.464;8.712;2023-08-21T04:14:13;24.20;82.10
25352;DHT22;13304;48.464;8.712;2023-08-21T04:16:39;24.20;82.10
25352;DHT22;13304;48.464;8.712;2023-08-21T04:19:05;24.10;82.10
25352;DHT22;13304;48.464;8.712;2023-08-21T04:21:31;24.10;82.20
25352;DHT22;13304;48.464;8.712;2023-08-21T04:23:57;24.10;82.20
25352;DHT22;13304;48.464;8.712;2023-08-21T04:26:23;24.10;82.30
25352;DHT22;13304;48.464;8.712;2023-08-21T04:28:49;24.10;82.40
25352;DHT22;13304;48.464;8.712;2023-08-21T04:31:14;24.10;82.50
25352;DHT22;13304;48.464;8.712;2023-08-21T04:33:40;24.10;82.50
25352;DHT22;13304;48.464;8.712;2023-08-21T04:36:06;24.10;82.40
25352;DHT22;13304;48.464;8.712;2023-08-21T04:38:32;24.10;82.50
25352;DHT22;13304;48.464;8.712;2023-08-21T04:41:06;24.10;82.40
25352;DHT22;13304;48.464;8.712;2023-08-21T04:43:33;24.10;82.60
25352;DHT22;13304;48.464;8.712;2023-08-21T04:45:58;24.10;82.50
25352;DHT22;13304;48.464;8.712;2023-08-21T04:48:24;24.10;82.50
25352;DHT22;13304;48.464;8.712;2023-08-21T04:50:50;24.10;82.60
25352;DHT22;13304;48.464;8.712;2023-08-21T04:53:16;24.10;82.70
25352;DHT22;13304;48.464;8.712;2023-08-21T04:55:42;24.10;82.70
25352;DHT22;13304;48.464;8.712;2023-08-21T04:58:08;24.10;82.70
25352;DHT22;13304;48.464;8.712;2023-08-21T05:00:34;24.10;82.80
25352;DHT22;13304;48.464;8.712;2023-08-21T05:02:59;24.10;82.90
25352;DHT22;13304;48.464;8.712;2023-08-21T05:05:25;24.00;83.00
25352;DHT22;13304;48.464;8.712;2023-08-21T05:07:52;24.00;83.10
25352;DHT22;13304;48.464;8.712;2023-08-21T05:10:18;24.10;83.30
25352;DHT22;13304;48.464;8.712;2023-08-21T05:12:45;24.00;83.30
25352;DHT22;13304;48.464;8.712;2023-08-21T05:15:11;24.00;83.50
25352;DHT22;13304;48.464;8.712;2023-08-21T05:17:37;24.00;83.40
25352;DHT22;13304;48.464;8.712;2023-08-21T05:20:03;24.10;83.30
25352;DHT22;13304;48.464;8.712;2023-08-21T05:22:28;24.10;83.40
25352;DHT22;13304;48.464;8.712;2023-08-21T05:24:54;24.10;83.40
25352;DHT22;13304;48.464;8.712;2023-08-21T05:27:20;24.10;83.40
25352;DHT22;13304;48.464;8.712;2023-08-21T05:29:46;24.10;83.50
25352;DHT22;13304;48.464;8.712;2023-08-21T05:32:11;24.10;83.50
25352;DHT22;13304;48.464;8.712;2023-08-21T05:34:37;24.10;83.60
25352;DHT22;13304;48.464;8.712;2023-08-21T05:37:03;24.10;83.70
25352;DHT22;13304;48.464;8.712;2023-08-21T05:39:29;24.20;83.80
25352;DHT22;13304;48.464;8.712;2023-08-21T05:41:55;24.20;83.80
25352;DHT22;13304;48.464;8.712;2023-08-21T05:44:20;24.20;83.80
25352;DHT22;13304;48.464;8.712;2023-08-21T05:46:46;24.20;83.90
25352;DHT22;13304;48.464;8.712;2023-08-21T05:49:12;24.20;84.00
25352;DHT22;13304;48.464;8.712;2023-08-21T05:51:38;24.20;84.00
25352;DHT22;13304;48.464;8.712;2023-08-21T05:54:03;24.30;84.10
25352;DHT22;13304;48.464;8.712;2023-08-21T05:56:29;24.30;84.20
25352;DHT22;13304;48.464;8.712;2023-08-21T05:58:55;24.30;84.20
25352;DHT22;13304;48.464;8.712;2023-08-21T06:01:20;24.40;84.30
25352;DHT22;13304;48.464;8.712;2023-08-21T06:03:46;24.40;84.30
25352;DHT22;13304;48.464;8.712;2023-08-21T06:06:12;24.40;84.30
25352;DHT22;13304;48.464;8.712;2023-08-21T06:08:37;24.50;84.30
25352;DHT22;13304;48.464;8.712;2023-08-21T06:11:03;24.50;84.20
25352;DHT22;13304;48.464;8.712;2023-08-21T06:13:29;24.50;84.30
25352;DHT22;13304;48.464;8.712;2023-08-21T06:15:55;24.60;84.20
25352;DHT22;13304;48.464;8.712;2023-08-21T06:18:20;24.60;84.20
25352;DHT22;13304;48.464;8.712;2023-08-21T06:20:46;24.70;84.30
25352;DHT22;13304;48.464;8.712;2023-08-21T06:23:12;24.70;84.20
25352;DHT22;13304;48.464;8.712;2023-08-21T06:25:38;24.70;84.00
25352;DHT22;13304;48.464;8.712;2023-08-21T06:28:04;24.80;83.90
25352;DHT22;13304;48.464;8.712;2023-08-21T06:30:30;24.80;83.70
25352;DHT22;13304;48.464;8.712;2023-08-21T06:32:55;24.90;83.80
25352;DHT22;13304;48.464;8.712;2023-08-21T06:35:22;24.90;83.80
25352;DHT22;13304;48.464;8.712;2023-08-21T06:37:47;25.00;83.80
25352;DHT22;13304;48.464;8.712;2023-08-21T06:40:13;25.00;83.70
25352;DHT22;13304;48.464;8.712;2023-08-21T06:42:39;25.00;83.50
25352;DHT22;13304;48.464;8.712;2023-08-21T06:45:05;25.10;83.30
25352;DHT22;13304;48.464;8.712;2023-08-21T06:47:32;25.10;83.30
25352;DHT22;13304;48.464;8.712;2023-08-21T06:49:57;25.20;83.20
25352;DHT22;13304;48.464;8.712;2023-08-21T06:52:23;25.20;83.10
25352;DHT22;13304;48.464;8.712;2023-08-21T06:54:49;25.30;82.90
25352;DHT22;13304;48.464;8.712;2023-08-21T06:57:15;25.30;82.60
25352;DHT22;13304;48.464;8.712;2023-08-21T06:59:40;25.40;82.50
25352;DHT22;13304;48.464;8.712;2023-08-21T07:02:06;25.40;82.20
25352;DHT22;13304;48.464;8.712;2023-08-21T07:04:32;25.50;82.10
25352;DHT22;13304;48.464;8.712;2023-08-21T07:07:01;25.50;82.10
25352;DHT22;13304;48.464;8.712;2023-08-21T07:09:26;25.60;81.90
25352;DHT22;13304;48.464;8.712;2023-08-21T07:11:52;25.70;81.90
25352;DHT22;13304;48.464;8.712;2023-08-21T07:14:19;25.70;81.80
25352;DHT22;13304;48.464;8.712;2023-08-21T07:16:45;25.70;81.60
25352;DHT22;13304;48.464;8.712;2023-08-21T07:19:10;25.70;81.50
25352;DHT22;13304;48.464;8.712;2023-08-21T07:21:36;25.80;81.40
25352;DHT22;13304;48.464;8.712;2023-08-21T07:24:04;25.90;81.40
25352;DHT22;13304;48.464;8.712;2023-08-21T07:26:29;25.90;81.30
25352;DHT22;13304;48.464;8.712;2023-08-21T07:28:55;26.00;81.40
25352;DHT22;13304;48.464;8.712;2023-08-21T07:31:21;26.10;81.30
25352;DHT22;13304;48.464;8.712;2023-08-21T07:33:47;26.10;80.90
25352;DHT22;13304;48.464;8.712;2023-08-21T07:36:13;26.20;80.60
25352;DHT22;13304;48.464;8.712;2023-08-21T07:38:43;26.20;80.40
25352;DHT22;13304;48.464;8.712;2023-08-21T07:41:10;26.30;80.20
25352;DHT22;13304;48.464;8.712;2023-08-21T07:43:37;26.40;80.20
25352;DHT22;13304;48.464;8.712;2023-08-21T07:46:04;26.40;80.00
25352;DHT22;13304;48.464;8.712;2023-08-21T07:48:31;26.50;79.90
25352;DHT22;13304;48.464;8.712;2023-08-21T07:50:57;26.60;79.70
25352;DHT22;13304;48.464;8.712;2023-08-21T07:53:23;26.60;79.30
25352;DHT22;13304;48.464;8.712;2023-08-21T07:55:49;26.70;79.40
25352;DHT22;13304;48.464;8.712;2023-08-21T07:58:15;26.80;79.40
25352;DHT22;13304;48.464;8.712;2023-08-21T08:00:41;26.80;80.10
25352;DHT22;13304;48.464;8.712;2023-08-21T08:03:10;26.90;79.90
25352;DHT22;13304;48.464;8.712;2023-08-21T08:05:37;27.00;79.90
25352;DHT22;13304;48.464;8.712;2023-08-21T08:08:04;27.00;79.40
25352;DHT22;13304;48.464;8.712;2023-08-21T08:10:29;27.10;80.10
25352;DHT22;13304;48.464;8.712;2023-08-21T08:12:55;27.20;80.00
25352;DHT22;13304;48.464;8.712;2023-08-21T08:15:22;27.20;79.90
25352;DHT22;13304;48.464;8.712;2023-08-21T08:17:47;27.30;79.20
25352;DHT22;13304;48.464;8.712;2023-08-21T08:20:17;27.40;79.00
25352;DHT22;13304;48.464;8.712;2023-08-21T08:22:43;27.40;79.10
25352;DHT22;13304;48.464;8.712;2023-08-21T08:25:09;27.50;79.00
25352;DHT22;13304;48.464;8.712;2023-08-21T08:27:35;27.50;78.50
25352;DHT22;13304;48.464;8.712;2023-08-21T08:30:02;27.60;77.90
25352;DHT22;13304;48.464;8.712;2023-08-21T08:32:28;27.70;78.10
25352;DHT22;13304;48.464;8.712;2023-08-21T08:34:54;27.70;77.70
25352;DHT22;13304;48.464;8.712;2023-08-21T08:37:20;27.80;77.50
25352;DHT22;13304;48.464;8.712;2023-08-21T08:39:48;27.80;77.10
25352;DHT22;13304;48.464;8.712;2023-08-21T08:42:14;27.90;76.80
25352;DHT22;13304;48.464;8.712;2023-08-21T08:44:41;27.90;76.90
25352;DHT22;13304;48.464;8.712;2023-08-21T08:47:11;28.00;77.00
25352;DHT22;13304;48.464;8.712;2023-08-21T08:49:38;28.00;76.80
25352;DHT22;13304;48.464;8.712;2023-08-21T08:52:04;28.10;76.70
25352;DHT22;13304;48.464;8.712;2023-08-21T08:54:30;28.10;75.80
25352;DHT22;13304;48.464;8.712;2023-08-21T08:56:57;28.20;75.60
25352;DHT22;13304;48.464;8.712;2023-08-21T08:59:23;28.20;76.00
25352;DHT22;13304;48.464;8.712;2023-08-21T09:01:49;28.30;76.10
25352;DHT22;13304;48.464;8.712;2023-08-21T09:04:15;28.30;75.20
25352;DHT22;13304;48.464;8.712;2023-08-21T09:06:41;28.40;75.00
25352;DHT22;13304;48.464;8.712;2023-08-21T09:09:07;28.40;74.90
25352;DHT22;13304;48.464;8.712;2023-08-21T09:11:33;28.50;74.70
25352;DHT22;13304;48.464;8.712;2023-08-21T09:14:00;28.50;74.70
25352;DHT22;13304;48.464;8.712;2023-08-21T09:16:26;28.60;74.40
25352;DHT22;13304;48.464;8.712;2023-08-21T09:18:55;28.60;74.30
25352;DHT22;13304;48.464;8.712;2023-08-21T09:21:25;28.60;72.80
25352;DHT22;13304;48.464;8.712;2023-08-21T09:24:00;28.70;74.10
25352;DHT22;13304;48.464;8.712;2023-08-21T09:26:27;28.70;73.30
25352;DHT22;13304;48.464;8.712;2023-08-21T09:28:55;28.80;73.30
25352;DHT22;13304;48.464;8.712;2023-08-21T09:31:30;28.80;73.30
25352;DHT22;13304;48.464;8.712;2023-08-21T09:33:59;28.80;72.00
25352;DHT22;13304;48.464;8.712;2023-08-21T09:36:27;28.90;73.20
25352;DHT22;13304;48.464;8.712;2023-08-21T09:38:53;29.00;73.00
25352;DHT22;13304;48.464;8.712;2023-08-21T09:41:20;29.00;72.50
25352;DHT22;13304;48.464;8.712;2023-08-21T09:43:46;29.10;72.60
25352;DHT22;13304;48.464;8.712;2023-08-21T09:46:16;29.10;71.60
25352;DHT22;13304;48.464;8.712;2023-08-21T09:48:44;29.10;70.70
25352;DHT22;13304;48.464;8.712;2023-08-21T09:51:10;29.20;70.80
25352;DHT22;13304;48.464;8.712;2023-08-21T09:53:37;29.20;70.70
25352;DHT22;13304;48.464;8.712;2023-08-21T09:56:03;29.30;70.80
25352;DHT22;13304;48.464;8.712;2023-08-21T09:58:29;29.30;70.60
25352;DHT22;13304;48.464;8.712;2023-08-21T10:00:59;29.30;70.50
25352;DHT22;13304;48.464;8.712;2023-08-21T10:03:26;29.40;70.70
25352;DHT22;13304;48.464;8.712;2023-08-21T10:05:54;29.50;71.00
25352;DHT22;13304;48.464;8.712;2023-08-21T10:08:25;29.50;70.30
25352;DHT22;13304;48.464;8.712;2023-08-21T10:10:51;29.50;69.80
25352;DHT22;13304;48.464;8.712;2023-08-21T10:13:17;29.60;69.90
25352;DHT22;13304;48.464;8.712;2023-08-21T10:15:44;29.60;68.50
25352;DHT22;13304;48.464;8.712;2023-08-21T10:18:22;29.60;69.40
25352;DHT22;13304;48.464;8.712;2023-08-21T10:20:49;29.60;68.10
25352;DHT22;13304;48.464;8.712;2023-08-21T10:23:30;29.70;68.20
25352;DHT22;13304;48.464;8.712;2023-08-21T10:26:00;29.70;67.50
25352;DHT22;13304;48.464;8.712;2023-08-21T10:28:59;29.80;68.30
25352;DHT22;13304;48.464;8.712;2023-08-21T10:33:54;29.80;67.30
25352;DHT22;13304;48.464;8.712;2023-08-21T10:36:40;29.90;67.30
25352;DHT22;13304;48.464;8.712;2023-08-21T10:39:26;29.90;65.90
25352;DHT22;13304;48.464;8.712;2023-08-21T10:50:01;30.00;66.20
25352;DHT22;13304;48.464;8.712;2023-08-21T10:52:36;30.00;66.00
25352;DHT22;13304;48.464;8.712;2023-08-21T10:55:04;30.00;64.80
25352;DHT22;13304;48.464;8.712;2023-08-21T10:57:31;30.10;66.20
25352;DHT22;13304;48.464;8.712;2023-08-21T11:00:04;30.20;65.80
25352;DHT22;13304;48.464;8.712;2023-08-21T11:02:32;30.20;65.50
25352;DHT22;13304;48.464;8.712;2023-08-21T11:04:59;30.20;66.40
25352;DHT22;13304;48.464;8.712;2023-08-21T11:07:26;30.30;65.20
25352;DHT22;13304;48.464;8.712;2023-08-21T11:09:52;30.30;64.60
25352;DHT22;13304;48.464;8.712;2023-08-21T11:12:23;30.30;65.00
25352;DHT22;13304;48.464;8.712;2023-08-21T11:14:49;30.40;64.90
25352;DHT22;13304;48.464;8.712;2023-08-21T11:17:15;30.40;65.20
25352;DHT22;13304;48.464;8.712;2023-08-21T11:19:41;30.50;65.40
25352;DHT22;13304;48.464;8.712;2023-08-21T11:22:08;30.50;65.10
25352;DHT22;13304;48.464;8.712;2023-08-21T11:27:03;30.60;64.10
25352;DHT22;13304;48.464;8.712;2023-08-21T11:29:42;30.60;64.10
25352;DHT22;13304;48.464;8.712;2023-08-21T11:32:20;30.70;62.50
25352;DHT22;13304;48.464;8.712;2023-08-21T11:34:51;30.70;60.00
25352;DHT22;13304;48.464;8.712;2023-08-21T11:37:18;30.60;61.40
25352;DHT22;13304;48.464;8.712;2023-08-21T11:39:50;30.80;62.50
25352;DHT22;13304;48.464;8.712;2023-08-21T11:42:18;30.80;62.50
25352;DHT22;13304;48.464;8.712;2023-08-21T11:44:51;30.90;61.70
25352;DHT22;13304;48.464;8.712;2023-08-21T11:47:22;30.80;62.10
25352;DHT22;13304;48.464;8.712;2023-08-21T11:49:49;30.90;62.50
25352;DHT22;13304;48.464;8.712;2023-08-21T11:52:19;30.90;63.00
25352;DHT22;13304;48.464;8.712;2023-08-21T11:54:49;30.90;62.50
25352;DHT22;13304;48.464;8.712;2023-08-21T11:57:15;30.90;62.00
25352;DHT22;13304;48.464;8.712;2023-08-21T11:59:41;30.80;62.30
25352;DHT22;13304;48.464;8.712;2023-08-21T12:02:26;30.90;61.90
25352;DHT22;13304;48.464;8.712;2023-08-21T12:05:04;30.90;60.60
25352;DHT22;13304;48.464;8.712;2023-08-21T12:07:31;31.00;59.90
25352;DHT22;13304;48.464;8.712;2023-08-21T12:09:57;31.00;61.50
25352;DHT22;13304;48.464;8.712;2023-08-21T12:12:23;31.10;62.20
25352;DHT22;13304;48.464;8.712;2023-08-21T12:14:49;31.10;61.40
25352;DHT22;13304;48.464;8.712;2023-08-21T12:17:14;31.10;60.20
25352;DHT22;13304;48.464;8.712;2023-08-21T12:19:40;31.10;61.20
25352;DHT22;13304;48.464;8.712;2023-08-21T12:22:07;31.10;61.20
25352;DHT22;13304;48.464;8.712;2023-08-21T12:24:34;31.10;60.10
25352;DHT22;13304;48.464;8.712;2023-08-21T12:26:59;31.10;59.70
25352;DHT22;13304;48.464;8.712;2023-08-21T12:29:25;31.20;59.70
25352;DHT22;13304;48.464;8.712;2023-08-21T12:31:51;31.20;59.70
25352;DHT22;13304;48.464;8.712;2023-08-21T12:34:17;31.20;59.70
25352;DHT22;13304;48.464;8.712;2023-08-21T12:36:42;31.20;59.40
25352;DHT22;13304;48.464;8.712;2023-08-21T12:39:08;31.30;59.60
25352;DHT22;13304;48.464;8.712;2023-08-21T12:41:34;31.30;59.70
25352;DHT22;13304;48.464;8.712;2023-08-21T12:44:00;31.30;59.40
25352;DHT22;13304;48.464;8.712;2023-08-21T12:46:28;31.30;59.00
25352;DHT22;13304;48.464;8.712;2023-08-21T12:48:55;31.30;59.60
25352;DHT22;13304;48.464;8.712;2023-08-21T12:51:20;31.30;59.60
25352;DHT22;13304;48.464;8.712;2023-08-21T12:53:46;31.30;59.50
25352;DHT22;13304;48.464;8.712;2023-08-21T12:56:12;31.30;58.90
25352;DHT22;13304;48.464;8.712;2023-08-21T12:58:38;31.40;58.90
25352;DHT22;13304;48.464;8.712;2023-08-21T13:01:03;31.40;58.50
25352;DHT22;13304;48.464;8.712;2023-08-21T13:03:32;31.40;58.50
25352;DHT22;13304;48.464;8.712;2023-08-21T13:05:58;31.40;58.40
25352;DHT22;13304;48.464;8.712;2023-08-21T13:08:24;31.40;58.50
25352;DHT22;13304;48.464;8.712;2023-08-21T13:10:50;31.40;58.40
25352;DHT22;13304;48.464;8.712;2023-08-21T13:13:16;31.40;58.50
25352;DHT22;13304;48.464;8.712;2023-08-21T13:15:41;31.50;57.90
25352;DHT22;13304;48.464;8.712;2023-08-21T13:18:10;31.50;58.50
25352;DHT22;13304;48.464;8.712;2023-08-21T13:20:37;31.50;58.50
25352;DHT22;13304;48.464;8.712;2023-08-21T13:23:03;31.50;58.20
25352;DHT22;13304;48.464;8.712;2023-08-21T13:25:28;31.50;57.00
25352;DHT22;13304;48.464;8.712;2023-08-21T13:27:55;31.60;57.20
25352;DHT22;13304;48.464;8.712;2023-08-21T13:30:21;31.60;56.80
25352;DHT22;13304;48.464;8.712;2023-08-21T13:32:48;31.60;56.60
25352;DHT22;13304;48.464;8.712;2023-08-21T13:35:13;31.70;56.80
25352;DHT22;13304;48.464;8.712;2023-08-21T13:37:40;31.70;57.30
25352;DHT22;13304;48.464;8.712;2023-08-21T13:40:06;31.80;57.00
25352;DHT22;13304;48.464;8.712;2023-08-21T13:42:39;31.90;56.70
25352;DHT22;13304;48.464;8.712;2023-08-21T13:45:09;31.80;56.30
25352;DHT22;13304;48.464;8.712;2023-08-21T13:47:37;31.90;56.70
25352;DHT22;13304;48.464;8.712;2023-08-21T13:50:03;31.90;56.20
25352;DHT22;13304;48.464;8.712;2023-08-21T13:52:30;31.90;56.00
25352;DHT22;13304;48.464;8.712;2023-08-21T13:54:56;32.00;55.20
25352;DHT22;13304;48.464;8.712;2023-08-21T13:57:22;32.00;55.20
25352;DHT22;13304;48.464;8.712;2023-08-21T13:59:47;32.00;55.20
25352;DHT22;13304;48.464;8.712;2023-08-21T14:02:13;32.10;55.50
25352;DHT22;13304;48.464;8.712;2023-08-21T14:04:39;32.10;55.70
25352;DHT22;13304;48.464;8.712;2023-08-21T14:07:04;32.20;56.00
25352;DHT22;13304;48.464;8.712;2023-08-21T14:09:30;32.20;56.30
25352;DHT22;13304;48.464;8.712;2023-08-21T14:11:56;32.20;56.00
25352;DHT22;13304;48.464;8.712;2023-08-21T14:14:22;32.20;55.60
25352;DHT22;13304;48.464;8.712;2023-08-21T14:16:47;32.30;56.00
25352;DHT22;13304;48.464;8.712;2023-08-21T14:19:13;32.30;56.00
25352;DHT22;13304;48.464;8.712;2023-08-21T14:21:38;32.30;56.00
25352;DHT22;13304;48.464;8.712;2023-08-21T14:24:04;32.30;55.50
25352;DHT22;13304;48.464;8.712;2023-08-21T14:26:30;32.30;55.20
25352;DHT22;13304;48.464;8.712;2023-08-21T14:28:56;32.30;55.90
25352;DHT22;13304;48.464;8.712;2023-08-21T14:31:21;32.30;55.60
25352;DHT22;13304;48.464;8.712;2023-08-21T14:33:48;32.30;55.40
25352;DHT22;13304;48.464;8.712;2023-08-21T14:36:14;32.40;56.30
25352;DHT22;13304;48.464;8.712;2023-08-21T14:38:40;32.40;55.50
25352;DHT22;13304;48.464;8.712;2023-08-21T14:41:06;32.40;55.80
25352;DHT22;13304;48.464;8.712;2023-08-21T14:43:31;32.40;56.30
25352;DHT22;13304;48.464;8.712;2023-08-21T14:45:58;32.40;56.00
25352;DHT22;13304;48.464;8.712;2023-08-21T14:48:23;32.40;55.90
25352;DHT22;13304;48.464;8.712;2023-08-21T14:50:49;32.40;55.60
25352;DHT22;13304;48.464;8.712;2023-08-21T14:53:15;32.50;56.10
25352;DHT22;13304;48.464;8.712;2023-08-21T14:55:41;32.50;56.20
25352;DHT22;13304;48.464;8.712;2023-08-21T14:58:06;32.50;56.00
25352;DHT22;13304;48.464;8.712;2023-08-21T15:00:34;32.40;56.20
25352;DHT22;13304;48.464;8.712;2023-08-21T15:03:00;32.40;56.00
25352;DHT22;13304;48.464;8.712;2023-08-21T15:05:27;32.50;55.80
25352;DHT22;13304;48.464;8.712;2023-08-21T15:07:53;32.50;55.80
25352;DHT22;13304;48.464;8.712;2023-08-21T15:10:20;32.50;55.60
25352;DHT22;13304;48.464;8.712;2023-08-21T15:12:46;32.50;55.60
25352;DHT22;13304;48.464;8.712;2023-08-21T15:15:12;32.50;55.80
25352;DHT22;13304;48.464;8.712;2023-08-21T15:17:38;32.60;55.70
25352;DHT22;13304;48.464;8.712;2023-08-21T15:20:04;32.60;55.60
25352;DHT22;13304;48.464;8.712;2023-08-21T15:22:33;32.60;55.30
25352;DHT22;13304;48.464;8.712;2023-08-21T15:24:59;32.60;54.70
25352;DHT22;13304;48.464;8.712;2023-08-21T15:27:25;32.60;54.70
25352;DHT22;13304;48.464;8.712;2023-08-21T15:29:51;32.60;55.00
25352;DHT22;13304;48.464;8.712;2023-08-21T15:32:16;32.60;54.80
25352;DHT22;13304;48.464;8.712;2023-08-21T15:34:42;32.60;54.80
25352;DHT22;13304;48.464;8.712;2023-08-21T15:37:09;32.70;54.90
25352;DHT22;13304;48.464;8.712;2023-08-21T15:39:34;32.60;55.60
25352;DHT22;13304;48.464;8.712;2023-08-21T15:42:00;32.80;55.30
25352;DHT22;13304;48.464;8.712;2023-08-21T15:44:26;32.80;55.20
25352;DHT22;13304;48.464;8.712;2023-08-21T15:46:51;33.00;55.50
25352;DHT22;13304;48.464;8.712;2023-08-21T15:49:17;33.20;55.20